sensor_id;sensor_type;location;lat;lon;timestamp;temperature;humidity
15879;DHT22;61999;51.514;14.614;2023-07-30T00:00:10;12.40;82.90
15879;DHT22;61999;51.514;14.614;2023-07-30T00:02:39;12.30;82.80
15879;DHT22;61999;51.514;14.614;2023-07-30T00:05:07;12.30;83.00
15879;DHT22;61999;51.514;14.614;2023-07-30T00:07:35;12.20;83.00
15879;DHT22;61999;51.514;14.614;2023-07-30T00:10:04;12.20;83.10
15879;DHT22;61999;51.514;14.614;2023-07-30T00:12:34;12.20;83.70
15879;DHT22;61999;51.514;14.614;2023-07-30T00:15:02;12.10;83.10
15879;DHT22;61999;51.514;14.614;2023-07-30T00:17:31;12.10;83.00
15879;DHT22;61999;51.514;14.614;2023-07-30T00:19:59;12.10;83.30
15879;DHT22;61999;51.514;14.614;2023-07-30T00:22:27;12.00;83.20
15879;DHT22;61999;51.514;14.614;2023-07-30T00:24:55;12.00;83.60
15879;DHT22;61999;51.514;14.614;2023-07-30T00:27:22;12.00;83.50
15879;DHT22;61999;51.514;14.614;2023-07-30T00:29:52;12.00;83.60
15879;DHT22;61999;51.514;14.614;2023-07-30T00:32:20;12.30;82.70
15879;DHT22;61999;51.514;14.614;2023-07-30T00:34:48;12.30;82.90
15879;DHT22;61999;51.514;14.614;2023-07-30T00:37:15;12.20;83.00
15879;DHT22;61999;51.514;14.614;2023-07-30T00:39:43;12.20;82.60
15879;DHT22;61999;51.514;14.614;2023-07-30T00:42:11;12.10;82.40
15879;DHT22;61999;51.514;14.614;2023-07-30T00:44:39;12.00;82.90
15879;DHT22;61999;51.514;14.614;2023-07-30T00:47:09;12.00;83.10
15879;DHT22;61999;51.514;14.614;2023-07-30T00:49:37;12.00;83.00
15879;DHT22;61999;51.514;14.614;2023-07-30T00:52:06;12.00;83.00
15879;DHT22;61999;51.514;14.614;2023-07-30T00:54:35;11.90;83.20
15879;DHT22;61999;51.514;14.614;2023-07-30T00:57:04;11.90;83.30
15879;DHT22;61999;51.514;14.614;2023-07-30T00:59:33;11.90;84.10
15879;DHT22;61999;51.514;14.614;2023-07-30T01:02:02;11.90;83.70
15879;DHT22;61999;51.514;14.614;2023-07-30T01:04:33;11.90;83.80
15879;DHT22;61999;51.514;14.614;2023-07-30T01:07:01;11.90;83.60
15879;DHT22;61999;51.514;14.614;2023-07-30T01:09:29;11.80;83.20
15879;DHT22;61999;51.514;14.614;2023-07-30T01:11:58;11.80;83.60
15879;DHT22;61999;51.514;14.614;2023-07-30T01:14:27;11.80;83.80
15879;DHT22;61999;51.514;14.614;2023-07-30T01:16:56;11.80;83.90
15879;DHT22;61999;51.514;14.614;2023-07-30T01:19:26;11.80;84.10
15879;DHT22;61999;51.514;14.614;2023-07-30T01:21:55;11.90;84.70
15879;DHT22;61999;51.514;14.614;2023-07-30T01:24:23;11.90;83.80
15879;DHT22;61999;51.514;14.614;2023-07-30T01:26:55;11.80;83.60
15879;DHT22;61999;51.514;14.614;2023-07-30T01:29:32;11.80;83.80
15879;DHT22;61999;51.514;14.614;2023-07-30T01:32:08;11.80;83.90
15879;DHT22;61999;51.514;14.614;2023-07-30T01:34:40;11.80;84.40
15879;DHT22;61999;51.514;14.614;2023-07-30T01:37:13;11.90;84.90
15879;DHT22;61999;51.514;14.614;2023-07-30T01:39:43;12.20;82.80
15879;DHT22;61999;51.514;14.614;2023-07-30T01:42:13;12.60;80.10
15879;DHT22;61999;51.514;14.614;2023-07-30T01:44:41;12.70;80.10
15879;DHT22;61999;51.514;14.614;2023-07-30T01:47:09;12.60;81.00
15879;DHT22;61999;51.514;14.614;2023-07-30T01:49:37;12.50;82.00
15879;DHT22;61999;51.514;14.614;2023-07-30T01:52:05;12.70;79.90
15879;DHT22;61999;51.514;14.614;2023-07-30T01:54:35;12.60;80.70
15879;DHT22;61999;51.514;14.614;2023-07-30T01:57:04;12.50;81.40
15879;DHT22;61999;51.514;14.614;2023-07-30T01:59:32;12.50;80.40
15879;DHT22;61999;51.514;14.614;2023-07-30T02:01:59;12.60;79.90
15879;DHT22;61999;51.514;14.614;2023-07-30T02:04:27;12.40;81.10
15879;DHT22;61999;51.514;14.614;2023-07-30T02:06:55;12.30;81.70
15879;DHT22;61999;51.514;14.614;2023-07-30T02:09:23;12.40;81.30
15879;DHT22;61999;51.514;14.614;2023-07-30T02:11:53;12.60;79.40
15879;DHT22;61999;51.514;14.614;2023-07-30T02:14:21;12.90;77.10
15879;DHT22;61999;51.514;14.614;2023-07-30T02:16:49;13.10;75.90
15879;DHT22;61999;51.514;14.614;2023-07-30T02:19:17;13.10;76.10
15879;DHT22;61999;51.514;14.614;2023-07-30T02:21:44;13.00;75.90
15879;DHT22;61999;51.514;14.614;2023-07-30T02:24:12;13.00;76.60
15879;DHT22;61999;51.514;14.614;2023-07-30T02:26:40;13.00;76.50
15879;DHT22;61999;51.514;14.614;2023-07-30T02:29:10;12.70;78.00
15879;DHT22;61999;51.514;14.614;2023-07-30T02:31:38;12.80;77.20
15879;DHT22;61999;51.514;14.614;2023-07-30T02:34:06;12.90;76.50
15879;DHT22;61999;51.514;14.614;2023-07-30T02:36:34;12.70;78.80
15879;DHT22;61999;51.514;14.614;2023-07-30T02:39:03;12.60;78.80
15879;DHT22;61999;51.514;14.614;2023-07-30T02:41:31;12.40;79.60
15879;DHT22;61999;51.514;14.614;2023-07-30T02:43:59;12.50;78.60
15879;DHT22;61999;51.514;14.614;2023-07-30T02:46:28;12.70;77.70
15879;DHT22;61999;51.514;14.614;2023-07-30T02:48:56;12.80;77.20
15879;DHT22;61999;51.514;14.614;2023-07-30T02:51:23;12.70;78.80
15879;DHT22;61999;51.514;14.614;2023-07-30T02:53:52;12.70;77.90
15879;DHT22;61999;51.514;14.614;2023-07-30T02:56:26;12.60;79.00
15879;DHT22;61999;51.514;14.614;2023-07-30T02:58:53;12.60;78.90
15879;DHT22;61999;51.514;14.614;2023-07-30T03:01:21;12.40;80.50
15879;DHT22;61999;51.514;14.614;2023-07-30T03:03:51;12.30;80.40
15879;DHT22;61999;51.514;14.614;2023-07-30T03:06:19;12.10;81.00
15879;DHT22;61999;51.514;14.614;2023-07-30T03:08:46;12.00;81.50
15879;DHT22;61999;51.514;14.614;2023-07-30T03:11:14;11.90;82.40
15879;DHT22;61999;51.514;14.614;2023-07-30T03:13:42;11.80;82.20
15879;DHT22;61999;51.514;14.614;2023-07-30T03:16:10;11.70;82.70
15879;DHT22;61999;51.514;14.614;2023-07-30T03:18:38;11.60;82.60
15879;DHT22;61999;51.514;14.614;2023-07-30T03:21:06;11.60;82.80
15879;DHT22;61999;51.514;14.614;2023-07-30T03:23:34;11.50;82.60
15879;DHT22;61999;51.514;14.614;2023-07-30T03:26:02;11.50;82.90
15879;DHT22;61999;51.514;14.614;2023-07-30T03:28:30;11.40;83.00
15879;DHT22;61999;51.514;14.614;2023-07-30T03:30:59;11.40;83.10
15879;DHT22;61999;51.514;14.614;2023-07-30T03:33:28;11.40;83.10
15879;DHT22;61999;51.514;14.614;2023-07-30T03:35:56;11.40;82.90
15879;DHT22;61999;51.514;14.614;2023-07-30T03:38:26;11.30;83.20
15879;DHT22;61999;51.514;14.614;2023-07-30T03:40:53;11.30;83.30
15879;DHT22;61999;51.514;14.614;2023-07-30T03:43:21;11.30;82.60
15879;DHT22;61999;51.514;14.614;2023-07-30T03:45:49;11.30;82.10
15879;DHT22;61999;51.514;14.614;2023-07-30T03:48:17;11.30;83.20
15879;DHT22;61999;51.514;14.614;2023-07-30T03:50:45;11.30;83.40
15879;DHT22;61999;51.514;14.614;2023-07-30T03:53:13;11.30;83.60
15879;DHT22;61999;51.514;14.614;2023-07-30T03:55:43;11.30;83.80
15879;DHT22;61999;51.514;14.614;2023-07-30T03:58:10;11.30;84.00
15879;DHT22;61999;51.514;14.614;2023-07-30T04:00:39;11.30;84.00
15879;DHT22;61999;51.514;14.614;2023-07-30T04:03:07;11.40;85.30
15879;DHT22;61999;51.514;14.614;2023-07-30T04:05:35;11.40;84.60
15879;DHT22;61999;51.514;14.614;2023-07-30T04:08:03;11.40;84.70
15879;DHT22;61999;51.514;14.614;2023-07-30T04:10:31;11.50;85.00
15879;DHT22;61999;51.514;14.614;2023-07-30T04:13:00;11.50;85.20
15879;DHT22;61999;51.514;14.614;2023-07-30T04:15:29;11.60;85.70
15879;DHT22;61999;51.514;14.614;2023-07-30T04:17:57;11.50;85.30
15879;DHT22;61999;51.514;14.614;2023-07-30T04:20:24;11.60;85.20
15879;DHT22;61999;51.514;14.614;2023-07-30T04:22:52;11.60;85.40
15879;DHT22;61999;51.514;14.614;2023-07-30T04:25:20;11.60;85.50
15879;DHT22;61999;51.514;14.614;2023-07-30T04:27:48;11.60;85.70
15879;DHT22;61999;51.514;14.614;2023-07-30T04:30:18;11.60;85.90
15879;DHT22;61999;51.514;14.614;2023-07-30T04:32:46;11.70;86.00
15879;DHT22;61999;51.514;14.614;2023-07-30T04:35:14;11.70;86.30
15879;DHT22;61999;51.514;14.614;2023-07-30T04:37:44;11.70;86.30
15879;DHT22;61999;51.514;14.614;2023-07-30T04:40:12;11.80;86.60
15879;DHT22;61999;51.514;14.614;2023-07-30T04:42:40;11.90;87.20
15879;DHT22;61999;51.514;14.614;2023-07-30T04:45:09;12.00;87.70
15879;DHT22;61999;51.514;14.614;2023-07-30T04:47:41;12.20;87.60
15879;DHT22;61999;51.514;14.614;2023-07-30T04:50:09;12.50;85.00
15879;DHT22;61999;51.514;14.614;2023-07-30T04:52:37;12.80;84.00
15879;DHT22;61999;51.514;14.614;2023-07-30T04:55:06;13.00;84.30
15879;DHT22;61999;51.514;14.614;2023-07-30T04:57:35;13.00;84.80
15879;DHT22;61999;51.514;14.614;2023-07-30T05:00:03;13.00;84.70
15879;DHT22;61999;51.514;14.614;2023-07-30T05:02:34;13.20;84.00
15879;DHT22;61999;51.514;14.614;2023-07-30T05:05:03;13.40;82.50
15879;DHT22;61999;51.514;14.614;2023-07-30T05:07:32;13.50;82.00
15879;DHT22;61999;51.514;14.614;2023-07-30T05:10:00;13.60;81.20
15879;DHT22;61999;51.514;14.614;2023-07-30T05:12:28;13.70;81.30
15879;DHT22;61999;51.514;14.614;2023-07-30T05:14:56;13.90;79.80
15879;DHT22;61999;51.514;14.614;2023-07-30T05:17:24;14.00;80.00
15879;DHT22;61999;51.514;14.614;2023-07-30T05:19:52;13.90;82.50
15879;DHT22;61999;51.514;14.614;2023-07-30T05:22:21;13.70;84.50
15879;DHT22;61999;51.514;14.614;2023-07-30T05:24:49;13.70;84.20
15879;DHT22;61999;51.514;14.614;2023-07-30T05:27:17;13.80;84.30
15879;DHT22;61999;51.514;14.614;2023-07-30T05:29:45;13.80;85.10
15879;DHT22;61999;51.514;14.614;2023-07-30T05:32:14;13.70;85.00
15879;DHT22;61999;51.514;14.614;2023-07-30T05:34:42;13.60;86.20
15879;DHT22;61999;51.514;14.614;2023-07-30T05:37:10;13.70;87.00
15879;DHT22;61999;51.514;14.614;2023-07-30T05:39:40;13.70;87.50
15879;DHT22;61999;51.514;14.614;2023-07-30T05:42:08;13.80;85.80
15879;DHT22;61999;51.514;14.614;2023-07-30T05:44:36;14.10;84.10
15879;DHT22;61999;51.514;14.614;2023-07-30T05:47:04;14.40;80.70
15879;DHT22;61999;51.514;14.614;2023-07-30T05:49:32;14.50;80.50
15879;DHT22;61999;51.514;14.614;2023-07-30T05:52:00;14.50;82.70
15879;DHT22;61999;51.514;14.614;2023-07-30T05:54:27;14.50;82.60
15879;DHT22;61999;51.514;14.614;2023-07-30T05:56:57;14.30;85.00
15879;DHT22;61999;51.514;14.614;2023-07-30T05:59:25;14.20;85.40
15879;DHT22;61999;51.514;14.614;2023-07-30T06:01:55;14.40;83.70
15879;DHT22;61999;51.514;14.614;2023-07-30T06:04:23;14.80;79.70
15879;DHT22;61999;51.514;14.614;2023-07-30T06:06:51;14.70;83.20
15879;DHT22;61999;51.514;14.614;2023-07-30T06:09:19;14.80;78.20
15879;DHT22;61999;51.514;14.614;2023-07-30T06:11:47;15.00;79.60
15879;DHT22;61999;51.514;14.614;2023-07-30T06:14:17;15.30;74.80
15879;DHT22;61999;51.514;14.614;2023-07-30T06:16:45;15.50;75.50
15879;DHT22;61999;51.514;14.614;2023-07-30T06:19:13;15.30;77.20
15879;DHT22;61999;51.514;14.614;2023-07-30T06:21:41;15.20;81.30
15879;DHT22;61999;51.514;14.614;2023-07-30T06:24:09;15.10;81.30
15879;DHT22;61999;51.514;14.614;2023-07-30T06:26:37;15.00;82.70
15879;DHT22;61999;51.514;14.614;2023-07-30T06:29:05;14.90;84.50
15879;DHT22;61999;51.514;14.614;2023-07-30T06:31:35;15.10;86.30
15879;DHT22;61999;51.514;14.614;2023-07-30T06:34:03;15.10;89.80
15879;DHT22;61999;51.514;14.614;2023-07-30T06:36:31;15.80;79.50
15879;DHT22;61999;51.514;14.614;2023-07-30T06:38:59;15.80;81.70
15879;DHT22;61999;51.514;14.614;2023-07-30T06:41:27;15.80;82.10
15879;DHT22;61999;51.514;14.614;2023-07-30T06:43:55;15.80;84.20
15879;DHT22;61999;51.514;14.614;2023-07-30T06:46:23;16.20;76.10
15879;DHT22;61999;51.514;14.614;2023-07-30T06:48:52;16.20;77.70
15879;DHT22;61999;51.514;14.614;2023-07-30T06:51:24;16.00;81.90
15879;DHT22;61999;51.514;14.614;2023-07-30T06:53:52;15.80;84.10
15879;DHT22;61999;51.514;14.614;2023-07-30T06:56:20;15.70;84.80
15879;DHT22;61999;51.514;14.614;2023-07-30T06:58:48;15.70;86.50
15879;DHT22;61999;51.514;14.614;2023-07-30T07:01:16;15.80;82.90
15879;DHT22;61999;51.514;14.614;2023-07-30T07:03:44;15.90;85.20
15879;DHT22;61999;51.514;14.614;2023-07-30T07:06:14;15.80;87.50
15879;DHT22;61999;51.514;14.614;2023-07-30T07:08:42;15.80;88.30
15879;DHT22;61999;51.514;14.614;2023-07-30T07:11:10;15.90;89.50
15879;DHT22;61999;51.514;14.614;2023-07-30T07:13:38;16.30;80.20
15879;DHT22;61999;51.514;14.614;2023-07-30T07:16:06;16.50;82.40
15879;DHT22;61999;51.514;14.614;2023-07-30T07:18:34;16.80;78.70
15879;DHT22;61999;51.514;14.614;2023-07-30T07:21:02;17.00;74.20
15879;DHT22;61999;51.514;14.614;2023-07-30T07:23:31;17.10;74.50
15879;DHT22;61999;51.514;14.614;2023-07-30T07:25:59;17.50;68.60
15879;DHT22;61999;51.514;14.614;2023-07-30T07:28:27;17.30;68.80
15879;DHT22;61999;51.514;14.614;2023-07-30T07:30:55;17.10;68.40
15879;DHT22;61999;51.514;14.614;2023-07-30T07:33:23;16.80;68.20
15879;DHT22;61999;51.514;14.614;2023-07-30T07:35:51;16.50;67.60
15879;DHT22;61999;51.514;14.614;2023-07-30T07:38:19;16.20;69.10
15879;DHT22;61999;51.514;14.614;2023-07-30T07:40:48;15.90;72.40
15879;DHT22;61999;51.514;14.614;2023-07-30T07:43:17;15.80;74.70
15879;DHT22;61999;51.514;14.614;2023-07-30T07:45:45;15.80;74.40
15879;DHT22;61999;51.514;14.614;2023-07-30T07:48:13;16.10;70.70
15879;DHT22;61999;51.514;14.614;2023-07-30T07:50:41;16.10;71.30
15879;DHT22;61999;51.514;14.614;2023-07-30T07:53:09;16.30;71.20
15879;DHT22;61999;51.514;14.614;2023-07-30T07:55:37;16.40;70.80
15879;DHT22;61999;51.514;14.614;2023-07-30T07:58:07;16.50;67.30
15879;DHT22;61999;51.514;14.614;2023-07-30T08:00:35;16.20;71.30
15879;DHT22;61999;51.514;14.614;2023-07-30T08:03:03;16.20;70.20
15879;DHT22;61999;51.514;14.614;2023-07-30T08:05:31;16.30;70.70
15879;DHT22;61999;51.514;14.614;2023-07-30T08:07:59;16.20;72.50
15879;DHT22;61999;51.514;14.614;2023-07-30T08:10:27;16.50;69.90
15879;DHT22;61999;51.514;14.614;2023-07-30T08:12:55;16.50;75.50
15879;DHT22;61999;51.514;14.614;2023-07-30T08:15:24;17.00;69.50
15879;DHT22;61999;51.514;14.614;2023-07-30T08:17:52;17.30;67.80
15879;DHT22;61999;51.514;14.614;2023-07-30T08:20:20;17.30;70.00
15879;DHT22;61999;51.514;14.614;2023-07-30T08:22:48;17.40;71.50
15879;DHT22;61999;51.514;14.614;2023-07-30T08:25:16;17.70;66.00
15879;DHT22;61999;51.514;14.614;2023-07-30T08:27:44;17.70;65.30
15879;DHT22;61999;51.514;14.614;2023-07-30T08:30:13;17.40;69.20
15879;DHT22;61999;51.514;14.614;2023-07-30T08:32:42;17.60;70.00
15879;DHT22;61999;51.514;14.614;2023-07-30T08:35:10;17.90;65.80
15879;DHT22;61999;51.514;14.614;2023-07-30T08:37:38;18.20;65.60
15879;DHT22;61999;51.514;14.614;2023-07-30T08:40:09;18.20;67.60
15879;DHT22;61999;51.514;14.614;2023-07-30T08:42:38;18.20;71.10
15879;DHT22;61999;51.514;14.614;2023-07-30T08:45:07;18.50;69.60
15879;DHT22;61999;51.514;14.614;2023-07-30T08:47:35;18.70;70.90
15879;DHT22;61999;51.514;14.614;2023-07-30T08:50:07;19.10;66.40
15879;DHT22;61999;51.514;14.614;2023-07-30T08:52:36;19.60;63.00
15879;DHT22;61999;51.514;14.614;2023-07-30T08:55:06;20.00;59.50
15879;DHT22;61999;51.514;14.614;2023-07-30T08:57:51;19.90;59.10
15879;DHT22;61999;51.514;14.614;2023-07-30T09:00:24;19.90;60.80
15879;DHT22;61999;51.514;14.614;2023-07-30T09:02:54;19.80;60.00
15879;DHT22;61999;51.514;14.614;2023-07-30T09:05:25;19.80;61.00
15879;DHT22;61999;51.514;14.614;2023-07-30T09:07:56;19.80;60.10
15879;DHT22;61999;51.514;14.614;2023-07-30T09:10:27;20.20;59.80
15879;DHT22;61999;51.514;14.614;2023-07-30T09:12:56;20.20;68.20
15879;DHT22;61999;51.514;14.614;2023-07-30T09:15:33;20.70;58.50
15879;DHT22;61999;51.514;14.614;2023-07-30T09:18:04;20.90;56.80
15879;DHT22;61999;51.514;14.614;2023-07-30T09:20:41;20.60;57.20
15879;DHT22;61999;51.514;14.614;2023-07-30T09:23:10;20.70;56.40
15879;DHT22;61999;51.514;14.614;2023-07-30T09:25:39;20.60;55.90
15879;DHT22;61999;51.514;14.614;2023-07-30T09:28:08;20.10;56.40
15879;DHT22;61999;51.514;14.614;2023-07-30T09:30:36;20.10;57.20
15879;DHT22;61999;51.514;14.614;2023-07-30T09:33:04;20.10;55.50
15879;DHT22;61999;51.514;14.614;2023-07-30T09:35:33;20.20;56.00
15879;DHT22;61999;51.514;14.614;2023-07-30T09:38:03;20.30;56.10
15879;DHT22;61999;51.514;14.614;2023-07-30T09:40:32;20.40;56.20
15879;DHT22;61999;51.514;14.614;2023-07-30T09:43:02;20.50;55.30
15879;DHT22;61999;51.514;14.614;2023-07-30T09:45:34;20.60;56.70
15879;DHT22;61999;51.514;14.614;2023-07-30T09:48:04;20.80;54.00
15879;DHT22;61999;51.514;14.614;2023-07-30T09:50:33;21.30;54.00
15879;DHT22;61999;51.514;14.614;2023-07-30T09:53:04;21.30;55.90
15879;DHT22;61999;51.514;14.614;2023-07-30T09:55:32;21.60;52.80
15879;DHT22;61999;51.514;14.614;2023-07-30T09:58:00;21.90;52.60
15879;DHT22;61999;51.514;14.614;2023-07-30T10:00:29;21.90;49.50
15879;DHT22;61999;51.514;14.614;2023-07-30T10:02:58;21.90;51.80
15879;DHT22;61999;51.514;14.614;2023-07-30T10:05:33;22.10;58.60
15879;DHT22;61999;51.514;14.614;2023-07-30T10:08:07;22.90;50.40
15879;DHT22;61999;51.514;14.614;2023-07-30T10:10:39;23.10;52.30
15879;DHT22;61999;51.514;14.614;2023-07-30T10:13:09;23.40;49.00
15879;DHT22;61999;51.514;14.614;2023-07-30T10:15:40;23.30;47.30
15879;DHT22;61999;51.514;14.614;2023-07-30T10:18:08;23.00;48.90
15879;DHT22;61999;51.514;14.614;2023-07-30T10:20:36;22.90;47.70
15879;DHT22;61999;51.514;14.614;2023-07-30T10:23:06;22.80;47.80
15879;DHT22;61999;51.514;14.614;2023-07-30T10:25:46;22.50;49.60
15879;DHT22;61999;51.514;14.614;2023-07-30T10:28:26;22.30;51.40
15879;DHT22;61999;51.514;14.614;2023-07-30T10:31:08;22.20;51.30
15879;DHT22;61999;51.514;14.614;2023-07-30T10:33:49;22.30;50.10
15879;DHT22;61999;51.514;14.614;2023-07-30T10:36:48;22.00;49.80
15879;DHT22;61999;51.514;14.614;2023-07-30T10:39:20;21.30;51.30
15879;DHT22;61999;51.514;14.614;2023-07-30T10:41:56;20.90;50.90
15879;DHT22;61999;51.514;14.614;2023-07-30T10:44:28;20.60;56.00
15879;DHT22;61999;51.514;14.614;2023-07-30T10:47:00;21.00;52.70
15879;DHT22;61999;51.514;14.614;2023-07-30T10:49:36;21.30;51.30
15879;DHT22;61999;51.514;14.614;2023-07-30T10:52:05;21.50;52.10
15879;DHT22;61999;51.514;14.614;2023-07-30T10:54:35;21.70;51.80
15879;DHT22;61999;51.514;14.614;2023-07-30T10:57:04;22.10;50.70
15879;DHT22;61999;51.514;14.614;2023-07-30T10:59:34;22.20;50.90
15879;DHT22;61999;51.514;14.614;2023-07-30T11:02:04;22.20;50.10
15879;DHT22;61999;51.514;14.614;2023-07-30T11:04:35;22.20;50.30
15879;DHT22;61999;51.514;14.614;2023-07-30T11:07:03;22.10;52.20
15879;DHT22;61999;51.514;14.614;2023-07-30T11:09:31;22.20;49.70
15879;DHT22;61999;51.514;14.614;2023-07-30T11:12:01;22.60;48.20
15879;DHT22;61999;51.514;14.614;2023-07-30T11:14:29;22.50;50.90
15879;DHT22;61999;51.514;14.614;2023-07-30T11:16:58;22.60;50.60
15879;DHT22;61999;51.514;14.614;2023-07-30T11:19:27;23.00;51.40
15879;DHT22;61999;51.514;14.614;2023-07-30T11:21:57;23.40;50.90
15879;DHT22;61999;51.514;14.614;2023-07-30T11:24:33;23.80;51.30
15879;DHT22;61999;51.514;14.614;2023-07-30T11:27:04;24.50;49.10
15879;DHT22;61999;51.514;14.614;2023-07-30T11:29:32;24.90;45.50
15879;DHT22;61999;51.514;14.614;2023-07-30T11:32:00;24.70;42.30
15879;DHT22;61999;51.514;14.614;2023-07-30T11:34:30;24.50;41.70
15879;DHT22;61999;51.514;14.614;2023-07-30T11:37:03;23.80;41.80
15879;DHT22;61999;51.514;14.614;2023-07-30T11:39:32;23.50;43.40
15879;DHT22;61999;51.514;14.614;2023-07-30T11:42:00;23.40;44.10
15879;DHT22;61999;51.514;14.614;2023-07-30T11:44:30;23.20;45.40
15879;DHT22;61999;51.514;14.614;2023-07-30T11:46:59;23.40;44.20
15879;DHT22;61999;51.514;14.614;2023-07-30T11:49:27;23.90;43.60
15879;DHT22;61999;51.514;14.614;2023-07-30T11:52:04;24.20;46.20
15879;DHT22;61999;51.514;14.614;2023-07-30T11:54:34;24.60;45.20
15879;DHT22;61999;51.514;14.614;2023-07-30T11:57:03;25.00;41.40
15879;DHT22;61999;51.514;14.614;2023-07-30T11:59:32;25.00;44.40
15879;DHT22;61999;51.514;14.614;2023-07-30T12:02:00;25.10;42.10
15879;DHT22;61999;51.514;14.614;2023-07-30T12:04:39;25.00;41.10
15879;DHT22;61999;51.514;14.614;2023-07-30T12:07:10;24.60;46.30
15879;DHT22;61999;51.514;14.614;2023-07-30T12:09:38;24.60;41.80
15879;DHT22;61999;51.514;14.614;2023-07-30T12:12:08;24.20;41.90
15879;DHT22;61999;51.514;14.614;2023-07-30T12:14:44;23.80;42.90
15879;DHT22;61999;51.514;14.614;2023-07-30T12:17:21;23.10;44.00
15879;DHT22;61999;51.514;14.614;2023-07-30T12:19:49;22.80;46.10
15879;DHT22;61999;51.514;14.614;2023-07-30T12:22:17;22.80;43.70
15879;DHT22;61999;51.514;14.614;2023-07-30T12:24:45;22.60;43.40
15879;DHT22;61999;51.514;14.614;2023-07-30T12:27:14;22.50;45.10
15879;DHT22;61999;51.514;14.614;2023-07-30T12:29:42;23.10;45.50
15879;DHT22;61999;51.514;14.614;2023-07-30T12:32:10;23.80;42.80
15879;DHT22;61999;51.514;14.614;2023-07-30T12:34:38;24.10;39.80
15879;DHT22;61999;51.514;14.614;2023-07-30T12:37:06;24.20;40.90
15879;DHT22;61999;51.514;14.614;2023-07-30T12:39:36;24.50;40.70
15879;DHT22;61999;51.514;14.614;2023-07-30T12:42:04;24.70;41.80
15879;DHT22;61999;51.514;14.614;2023-07-30T12:44:34;25.20;41.40
15879;DHT22;61999;51.514;14.614;2023-07-30T12:47:02;25.90;38.70
15879;DHT22;61999;51.514;14.614;2023-07-30T12:49:30;26.60;37.50
15879;DHT22;61999;51.514;14.614;2023-07-30T12:51:58;27.30;37.90
15879;DHT22;61999;51.514;14.614;2023-07-30T12:54:26;27.70;35.40
15879;DHT22;61999;51.514;14.614;2023-07-30T12:56:53;27.90;39.10
15879;DHT22;61999;51.514;14.614;2023-07-30T12:59:22;28.10;35.30
15879;DHT22;61999;51.514;14.614;2023-07-30T13:01:51;28.50;33.50
15879;DHT22;61999;51.514;14.614;2023-07-30T13:04:21;28.60;38.20
15879;DHT22;61999;51.514;14.614;2023-07-30T13:06:49;29.00;33.60
15879;DHT22;61999;51.514;14.614;2023-07-30T13:09:17;29.20;37.60
15879;DHT22;61999;51.514;14.614;2023-07-30T13:11:45;29.30;31.60
15879;DHT22;61999;51.514;14.614;2023-07-30T13:14:13;29.20;34.70
15879;DHT22;61999;51.514;14.614;2023-07-30T13:16:41;29.20;33.90
15879;DHT22;61999;51.514;14.614;2023-07-30T13:19:11;29.10;37.20
15879;DHT22;61999;51.514;14.614;2023-07-30T13:21:39;29.30;36.40
15879;DHT22;61999;51.514;14.614;2023-07-30T13:24:07;29.60;32.00
15879;DHT22;61999;51.514;14.614;2023-07-30T13:26:35;29.60;30.50
15879;DHT22;61999;51.514;14.614;2023-07-30T13:29:05;29.30;31.90
15879;DHT22;61999;51.514;14.614;2023-07-30T13:31:33;29.00;34.00
15879;DHT22;61999;51.514;14.614;2023-07-30T13:34:01;28.60;32.00
15879;DHT22;61999;51.514;14.614;2023-07-30T13:36:30;28.10;34.20
15879;DHT22;61999;51.514;14.614;2023-07-30T13:38:58;27.90;31.40
15879;DHT22;61999;51.514;14.614;2023-07-30T13:41:27;27.80;33.90
15879;DHT22;61999;51.514;14.614;2023-07-30T13:43:55;27.80;35.00
15879;DHT22;61999;51.514;14.614;2023-07-30T13:46:23;28.00;35.00
15879;DHT22;61999;51.514;14.614;2023-07-30T13:48:51;28.50;36.10
15879;DHT22;61999;51.514;14.614;2023-07-30T13:51:19;29.00;31.50
15879;DHT22;61999;51.514;14.614;2023-07-30T13:53:48;29.10;30.50
15879;DHT22;61999;51.514;14.614;2023-07-30T13:56:16;29.00;35.00
15879;DHT22;61999;51.514;14.614;2023-07-30T13:58:44;29.00;31.40
15879;DHT22;61999;51.514;14.614;2023-07-30T14:01:12;29.10;33.30
15879;DHT22;61999;51.514;14.614;2023-07-30T14:03:41;29.30;31.20
15879;DHT22;61999;51.514;14.614;2023-07-30T14:06:11;29.20;32.60
15879;DHT22;61999;51.514;14.614;2023-07-30T14:08:39;29.00;31.80
15879;DHT22;61999;51.514;14.614;2023-07-30T14:11:08;28.70;32.60
15879;DHT22;61999;51.514;14.614;2023-07-30T14:13:36;27.90;33.30
15879;DHT22;61999;51.514;14.614;2023-07-30T14:16:05;27.00;36.50
15879;DHT22;61999;51.514;14.614;2023-07-30T14:18:33;26.80;33.40
15879;DHT22;61999;51.514;14.614;2023-07-30T14:21:01;26.50;33.30
15879;DHT22;61999;51.514;14.614;2023-07-30T14:23:35;25.70;35.00
15879;DHT22;61999;51.514;14.614;2023-07-30T14:26:03;25.30;40.50
15879;DHT22;61999;51.514;14.614;2023-07-30T14:28:33;25.30;36.50
15879;DHT22;61999;51.514;14.614;2023-07-30T14:31:01;25.60;36.50
15879;DHT22;61999;51.514;14.614;2023-07-30T14:33:29;25.70;36.10
15879;DHT22;61999;51.514;14.614;2023-07-30T14:35:57;26.10;35.20
15879;DHT22;61999;51.514;14.614;2023-07-30T14:41:22;26.60;34.60
15879;DHT22;61999;51.514;14.614;2023-07-30T14:43:51;26.10;33.90
15879;DHT22;61999;51.514;14.614;2023-07-30T14:46:20;25.50;36.00
15879;DHT22;61999;51.514;14.614;2023-07-30T14:48:48;25.40;36.70
15879;DHT22;61999;51.514;14.614;2023-07-30T14:51:16;25.30;39.80
15879;DHT22;61999;51.514;14.614;2023-07-30T14:53:48;25.30;39.20
15879;DHT22;61999;51.514;14.614;2023-07-30T14:56:25;25.80;37.60
15879;DHT22;61999;51.514;14.614;2023-07-30T14:58:55;25.70;34.00
15879;DHT22;61999;51.514;14.614;2023-07-30T15:01:27;25.20;36.40
15879;DHT22;61999;51.514;14.614;2023-07-30T15:03:57;24.70;36.90
15879;DHT22;61999;51.514;14.614;2023-07-30T15:06:25;24.30;38.30
15879;DHT22;61999;51.514;14.614;2023-07-30T15:08:57;24.20;38.50
15879;DHT22;61999;51.514;14.614;2023-07-30T15:11:25;24.60;41.10
15879;DHT22;61999;51.514;14.614;2023-07-30T15:13:54;24.90;41.50
15879;DHT22;61999;51.514;14.614;2023-07-30T15:16:22;25.30;38.30
15879;DHT22;61999;51.514;14.614;2023-07-30T15:18:50;25.80;37.90
15879;DHT22;61999;51.514;14.614;2023-07-30T15:21:18;25.60;37.40
15879;DHT22;61999;51.514;14.614;2023-07-30T15:23:46;25.70;35.00
15879;DHT22;61999;51.514;14.614;2023-07-30T15:26:14;25.60;35.30
15879;DHT22;61999;51.514;14.614;2023-07-30T15:28:42;25.60;37.70